Time;durP1;ratioP1;P1;durP2;ratioP2;P2;SDS_P1;SDS_P2;PMS_P1;PMS_P2;Temp;Humidity;BMP_temperature;BMP_pressure;BME280_temperature;BME280_humidity;BME280_pressure;Samples;Min_cycle;Max_cycle;Signal;HPM_P1;HPM_P2
2023/01/21 00:00:42;;;;;;;1.20;1.20;;;1.90;99.90;;;;;;5021403;28;20633;-67
2023/01/21 00:03:11;;;;;;;1.30;1.30;;;2.00;99.90;;;;;;5018767;28;20216;-67
2023/01/21 00:05:38;;;;;;;1.10;1.10;;;2.00;99.90;;;;;;5026073;28;20197;-65
2023/01/21 00:08:05;;;;;;;1.13;1.13;;;2.00;99.90;;;;;;5022425;28;20323;-65
2023/01/21 00:10:32;;;;;;;1.23;1.20;;;2.00;99.90;;;;;;5018064;28;20688;-66
2023/01/21 00:12:59;;;;;;;1.60;1.20;;;2.00;99.90;;;;;;5024953;28;20209;-66
2023/01/21 00:15:26;;;;;;;1.13;1.13;;;2.00;99.90;;;;;;5024198;28;20204;-66
2023/01/21 00:17:53;;;;;;;0.90;0.90;;;1.90;99.90;;;;;;5026879;28;20228;-66
2023/01/21 00:20:21;;;;;;;0.90;0.90;;;1.90;99.90;;;;;;5028075;28;20303;-66
2023/01/21 00:22:52;;;;;;;1.00;1.00;;;1.90;99.90;;;;;;5027001;28;20651;-66
2023/01/21 00:25:19;;;;;;;0.90;0.90;;;1.90;99.90;;;;;;5026164;28;20284;-66
2023/01/21 00:27:46;;;;;;;1.13;1.13;;;1.90;99.90;;;;;;5026061;28;20231;-65
2023/01/21 00:30:14;;;;;;;1.10;1.10;;;1.90;99.90;;;;;;5028217;28;21052;-66
2023/01/21 00:32:41;;;;;;;0.90;0.90;;;1.90;99.90;;;;;;5030316;28;20196;-65
2023/01/21 00:35:08;;;;;;;1.00;1.00;;;1.90;99.90;;;;;;5021837;28;20557;-65
2023/01/21 00:37:36;;;;;;;0.80;0.80;;;1.90;99.90;;;;;;5030411;28;20658;-66
2023/01/21 00:40:04;;;;;;;0.83;0.83;;;1.80;99.90;;;;;;5025875;28;20221;-66
2023/01/21 00:42:31;;;;;;;0.90;0.90;;;1.80;99.90;;;;;;5023289;28;20225;-66
2023/01/21 00:44:58;;;;;;;0.70;0.70;;;1.80;99.90;;;;;;5021421;28;20647;-65
2023/01/21 00:47:25;;;;;;;1.03;1.03;;;1.90;99.90;;;;;;5023688;28;20201;-64
2023/01/21 00:49:52;;;;;;;1.07;1.07;;;1.80;99.90;;;;;;5023243;28;20313;-66
2023/01/21 00:52:19;;;;;;;0.80;0.80;;;1.70;99.90;;;;;;5023325;28;20574;-66
2023/01/21 00:54:47;;;;;;;1.00;1.00;;;1.70;99.90;;;;;;5025738;28;20203;-65
2023/01/21 00:57:15;;;;;;;0.70;0.70;;;1.70;99.90;;;;;;5023011;28;20204;-64
2023/01/21 00:59:41;;;;;;;0.80;0.80;;;1.60;99.90;;;;;;5023399;28;20228;-65
2023/01/21 01:02:08;;;;;;;1.00;1.00;;;1.60;99.90;;;;;;5021395;28;20303;-65
2023/01/21 01:04:35;;;;;;;0.80;0.80;;;1.60;99.90;;;;;;5017012;28;20204;-67
2023/01/21 01:07:02;;;;;;;1.00;1.00;;;1.60;99.90;;;;;;5014470;28;20682;-66
2023/01/21 01:09:29;;;;;;;0.83;0.83;;;1.60;99.90;;;;;;5024763;28;20239;-64
2023/01/21 01:11:57;;;;;;;0.77;0.77;;;1.50;99.90;;;;;;5012232;28;20200;-66
2023/01/21 01:14:24;;;;;;;0.73;0.73;;;1.50;99.90;;;;;;5014824;28;20270;-64
2023/01/21 01:16:51;;;;;;;0.80;0.80;;;1.50;99.90;;;;;;5011959;28;20206;-64
2023/01/21 01:19:18;;;;;;;1.00;1.00;;;1.50;99.90;;;;;;5011582;28;20288;-65
2023/01/21 01:21:45;;;;;;;0.90;0.90;;;1.50;99.90;;;;;;5012292;28;20223;-65
2023/01/21 01:24:12;;;;;;;0.90;0.90;;;1.60;99.90;;;;;;5012923;28;20207;-65
2023/01/21 01:26:39;;;;;;;0.80;0.80;;;1.60;99.90;;;;;;5038827;28;20201;-66
2023/01/21 01:29:10;;;;;;;0.93;0.93;;;1.60;99.90;;;;;;5044067;28;20192;-65
2023/01/21 01:31:37;;;;;;;0.90;0.90;;;1.60;99.90;;;;;;5029996;28;20256;-65
2023/01/21 01:34:04;;;;;;;0.70;0.70;;;1.60;99.90;;;;;;5030191;28;20223;-64
2023/01/21 01:36:31;;;;;;;0.90;0.90;;;1.60;99.90;;;;;;5032000;28;20208;-64
2023/01/21 01:38:58;;;;;;;0.80;0.80;;;1.70;99.90;;;;;;5029835;28;20555;-65
2023/01/21 01:41:28;;;;;;;1.00;1.00;;;1.70;99.90;;;;;;5024345;28;20221;-65
2023/01/21 01:43:58;;;;;;;0.90;0.90;;;1.70;99.90;;;;;;5022616;28;20225;-65
2023/01/21 01:46:28;;;;;;;1.03;1.03;;;1.70;99.90;;;;;;5021090;28;20306;-65
2023/01/21 01:49:05;;;;;;;0.90;0.90;;;1.70;99.90;;;;;;5023678;28;20207;-65
2023/01/21 01:51:41;;;;;;;0.80;0.80;;;1.70;99.90;;;;;;5021084;28;20595;-65
2023/01/21 01:54:09;;;;;;;0.67;0.67;;;1.80;99.90;;;;;;5020768;28;20288;-65
2023/01/21 01:56:42;;;;;;;0.80;0.80;;;1.70;99.90;;;;;;5031954;28;20623;-65
2023/01/21 01:59:08;;;;;;;0.80;0.80;;;1.70;99.90;;;;;;5021356;28;20196;-66
2023/01/21 02:01:37;;;;;;;0.80;0.80;;;1.70;99.90;;;;;;5020739;28;20221;-65
2023/01/21 02:04:09;;;;;;;0.70;0.70;;;1.70;99.90;;;;;;5020051;28;20339;-66
2023/01/21 02:06:39;;;;;;;0.83;0.80;;;1.70;99.90;;;;;;5031984;28;20212;-67
2023/01/21 02:09:05;;;;;;;0.63;0.63;;;1.70;99.90;;;;;;5032754;28;20291;-65
2023/01/21 02:11:37;;;;;;;0.77;0.77;;;1.70;99.90;;;;;;5031761;28;20260;-66
2023/01/21 02:14:04;;;;;;;0.80;0.80;;;1.60;99.90;;;;;;5032984;28;20753;-65
2023/01/21 02:16:55;;;;;;;0.83;0.83;;;1.60;99.90;;;;;;5031622;28;20860;-65
2023/01/21 02:20:05;;;;;;;0.80;0.80;;;1.60;99.90;;;;;;5032513;28;20209;-66
2023/01/21 02:22:43;;;;;;;0.77;0.77;;;1.60;99.90;;;;;;5017317;28;20673;-66
2023/01/21 02:25:55;;;;;;;0.60;0.60;;;1.60;99.90;;;;;;5032417;28;20236;-67
2023/01/21 02:28:43;;;;;;;0.73;0.73;;;1.50;99.90;;;;;;5031236;28;20216;-66
2023/01/21 02:31:36;;;;;;;0.90;0.90;;;1.40;99.90;;;;;;5024322;28;20235;-66
2023/01/21 02:34:16;;;;;;;0.60;0.60;;;1.30;99.90;;;;;;5017621;28;20197;-64
2023/01/21 02:37:02;;;;;;;0.70;0.70;;;1.30;99.90;;;;;;5028851;28;20295;-66
2023/01/21 02:39:39;;;;;;;0.60;0.60;;;1.20;99.90;;;;;;5027636;28;20223;-67
2023/01/21 02:42:09;;;;;;;0.67;0.67;;;1.20;99.90;;;;;;5027248;28;20231;-65
2023/01/21 02:44:39;;;;;;;0.70;0.70;;;1.00;99.90;;;;;;5024504;28;20200;-64
2023/01/21 02:47:21;;;;;;;0.80;0.80;;;1.00;99.90;;;;;;5025139;28;20205;-66
2023/01/21 02:49:55;;;;;;;0.80;0.80;;;0.90;99.90;;;;;;5026318;28;20224;-66
2023/01/21 02:52:24;;;;;;;0.65;0.65;;;0.90;99.90;;;;;;5023847;28;20357;-66
2023/01/21 02:54:53;;;;;;;0.80;0.80;;;0.80;99.90;;;;;;5030125;28;20196;-64
2023/01/21 02:57:38;;;;;;;0.80;0.80;;;0.80;99.90;;;;;;5029206;28;20197;-67
2023/01/21 03:00:09;;;;;;;0.50;0.50;;;0.80;99.90;;;;;;5026564;28;20239;-66
2023/01/21 03:03:06;;;;;;;0.70;0.70;;;0.90;99.90;;;;;;5030164;28;20307;-65
2023/01/21 03:06:09;;;;;;;0.60;0.60;;;0.90;99.90;;;;;;5030612;28;20212;-65
2023/01/21 03:08:41;;;;;;;0.50;0.50;;;0.90;99.90;;;;;;4970273;28;20711;-66
2023/01/21 03:11:14;;;;;;;0.60;0.60;;;0.90;99.90;;;;;;5022337;28;21013;-66
2023/01/21 03:19:23;;;;;;;0.70;0.70;;;0.80;99.90;;;;;;5032014;28;20204;-65
2023/01/21 03:21:53;;;;;;;0.87;0.87;;;0.70;99.90;;;;;;5031861;28;20196;-66
2023/01/21 03:24:20;;;;;;;0.73;0.73;;;0.70;99.90;;;;;;5031652;28;20234;-65
2023/01/21 03:26:52;;;;;;;0.60;0.60;;;0.60;99.90;;;;;;5031096;28;20254;-65
2023/01/21 03:29:24;;;;;;;0.70;0.70;;;0.60;99.90;;;;;;5031410;28;20208;-65
2023/01/21 03:31:56;;;;;;;0.60;0.60;;;0.60;99.90;;;;;;5031108;28;20575;-65
2023/01/21 03:34:26;;;;;;;0.60;0.60;;;0.50;99.90;;;;;;5031482;28;20228;-71
2023/01/21 03:36:58;;;;;;;0.70;0.70;;;0.40;99.90;;;;;;5031691;28;20211;-65
2023/01/21 03:39:34;;;;;;;0.90;0.90;;;0.50;99.90;;;;;;5037654;28;20216;-64
2023/01/21 03:42:02;;;;;;;0.80;0.80;;;0.40;99.90;;;;;;5040016;28;20267;-65
2023/01/21 03:44:29;;;;;;;0.60;0.60;;;0.40;99.90;;;;;;5036271;28;20228;-65
2023/01/21 03:47:01;;;;;;;0.60;0.60;;;0.40;99.90;;;;;;5036692;28;20288;-67
2023/01/21 03:49:32;;;;;;;0.60;0.60;;;0.40;99.90;;;;;;5040036;28;20207;-65
2023/01/21 03:52:03;;;;;;;0.50;0.50;;;0.30;99.90;;;;;;5041617;28;20296;-65
2023/01/21 03:54:31;;;;;;;0.80;0.80;;;0.40;99.90;;;;;;5031041;28;20667;-64
2023/01/21 03:56:58;;;;;;;0.63;0.63;;;0.30;99.90;;;;;;5030547;28;20201;-66
2023/01/21 03:59:25;;;;;;;0.70;0.70;;;0.30;99.90;;;;;;5030854;28;20215;-66
2023/01/21 04:01:51;;;;;;;0.60;0.60;;;0.20;99.90;;;;;;5030899;28;20295;-65
2023/01/21 04:04:18;;;;;;;0.63;0.63;;;0.10;99.90;;;;;;5031236;28;20235;-65
2023/01/21 04:06:45;;;;;;;0.60;0.60;;;0.10;99.90;;;;;;5034365;28;20216;-66
2023/01/21 04:09:13;;;;;;;0.70;0.70;;;0.00;99.90;;;;;;5034977;28;20315;-67
2023/01/21 04:11:40;;;;;;;0.50;0.50;;;0.00;99.90;;;;;;5035245;28;20228;-65
2023/01/21 04:14:07;;;;;;;0.60;0.60;;;-0.10;99.90;;;;;;5034563;28;20205;-65
2023/01/21 04:16:34;;;;;;;0.53;0.53;;;0.10;99.90;;;;;;5033752;28;20215;-66
2023/01/21 04:19:01;;;;;;;0.70;0.70;;;-0.10;99.90;;;;;;5034324;28;20216;-65
2023/01/21 04:21:28;;;;;;;0.70;0.70;;;-0.10;99.90;;;;;;5033842;28;20230;-65
2023/01/21 04:23:54;;;;;;;0.57;0.57;;;-0.20;99.90;;;;;;5034155;28;20225;-64
2023/01/21 04:26:23;;;;;;;0.50;0.50;;;-0.20;99.90;;;;;;5033714;28;20229;-65
2023/01/21 04:28:49;;;;;;;0.40;0.40;;;-0.20;99.90;;;;;;5034067;28;20207;-66
2023/01/21 04:31:16;;;;;;;0.73;0.73;;;-0.20;99.90;;;;;;5033770;28;20699;-66
2023/01/21 04:33:43;;;;;;;0.83;0.80;;;-0.20;99.90;;;;;;5033728;28;20200;-65
2023/01/21 04:36:10;;;;;;;0.60;0.60;;;-0.20;99.90;;;;;;5038815;28;20208;-65
2023/01/21 04:38:37;;;;;;;0.70;0.70;;;-0.20;99.90;;;;;;5033543;28;20219;-64
2023/01/21 04:41:03;;;;;;;0.60;0.60;;;-0.20;99.90;;;;;;5033733;28;20224;-65
2023/01/21 04:43:32;;;;;;;0.70;0.70;;;-0.20;99.90;;;;;;5033437;28;20812;-65
2023/01/21 04:45:58;;;;;;;0.47;0.47;;;-0.30;99.90;;;;;;5033643;28;20204;-64
2023/01/21 04:48:25;;;;;;;0.60;0.60;;;-0.30;99.90;;;;;;5033919;28;20211;-65
2023/01/21 04:50:52;;;;;;;0.90;0.90;;;-0.30;99.90;;;;;;5033572;28;20233;-66
2023/01/21 04:53:19;;;;;;;0.70;0.70;;;-0.20;99.90;;;;;;5034296;28;20205;-66
2023/01/21 04:55:45;;;;;;;0.50;0.50;;;-0.20;99.90;;;;;;5034040;28;20208;-66
2023/01/21 04:58:12;;;;;;;0.67;0.67;;;-0.20;99.90;;;;;;5036918;28;20587;-66
2023/01/21 05:00:40;;;;;;;0.60;0.60;;;-0.20;99.90;;;;;;5052853;28;20229;-66
2023/01/21 05:03:07;;;;;;;0.60;0.60;;;-0.20;99.90;;;;;;5040707;28;20225;-64
2023/01/21 05:05:34;;;;;;;0.70;0.70;;;-0.30;99.90;;;;;;5034882;28;20287;-66
2023/01/21 05:08:01;;;;;;;0.60;0.60;;;-0.30;99.90;;;;;;5034651;28;20208;-65
2023/01/21 05:10:28;;;;;;;0.60;0.60;;;-0.30;99.90;;;;;;5034699;28;20224;-65
2023/01/21 05:12:55;;;;;;;0.57;0.57;;;-0.40;99.90;;;;;;5034905;28;20670;-66
2023/01/21 05:15:22;;;;;;;0.67;0.67;;;-0.40;99.90;;;;;;5033842;28;20303;-64
2023/01/21 05:17:50;;;;;;;0.73;0.73;;;-0.40;99.90;;;;;;5034510;28;20208;-67
2023/01/21 05:20:17;;;;;;;0.70;0.70;;;-0.30;99.90;;;;;;5033801;28;20255;-67
2023/01/21 05:22:46;;;;;;;0.60;0.60;;;-0.30;99.90;;;;;;5033946;28;20224;-66
2023/01/21 05:25:13;;;;;;;0.50;0.50;;;-0.30;99.90;;;;;;5033717;28;20209;-68
2023/01/21 05:27:39;;;;;;;0.50;0.50;;;-0.30;99.90;;;;;;5033657;28;20205;-66
2023/01/21 05:30:07;;;;;;;0.70;0.70;;;-0.30;99.90;;;;;;5033577;28;20236;-66
2023/01/21 05:32:35;;;;;;;0.60;0.60;;;-0.30;99.90;;;;;;5040693;28;20300;-65
2023/01/21 05:35:03;;;;;;;0.80;0.80;;;-0.30;99.90;;;;;;5049444;28;20227;-65
2023/01/21 05:37:30;;;;;;;0.80;0.80;;;-0.30;99.90;;;;;;5050029;28;20246;-65
2023/01/21 05:39:57;;;;;;;0.80;0.80;;;-0.30;99.90;;;;;;5050395;28;20284;-65
2023/01/21 05:42:24;;;;;;;0.70;0.70;;;-0.30;99.90;;;;;;5050452;28;20239;-65
2023/01/21 05:44:51;;;;;;;0.80;0.80;;;-0.30;99.90;;;;;;5049840;28;20283;-63
2023/01/21 05:47:17;;;;;;;0.80;0.80;;;-0.30;99.90;;;;;;5051411;28;20753;-65
2023/01/21 05:49:44;;;;;;;0.50;0.50;;;-0.30;99.90;;;;;;5049202;28;20372;-66
2023/01/21 05:52:12;;;;;;;0.90;0.90;;;-0.30;99.90;;;;;;5037471;28;20204;-65
2023/01/21 05:54:39;;;;;;;0.90;0.90;;;-0.30;99.90;;;;;;5033866;28;20207;-66
2023/01/21 05:57:06;;;;;;;0.90;0.70;;;-0.40;99.90;;;;;;5033024;28;20208;-66
2023/01/21 05:59:33;;;;;;;0.80;0.80;;;-0.40;99.90;;;;;;5032943;28;20200;-65
2023/01/21 06:01:59;;;;;;;0.70;0.70;;;-0.40;99.90;;;;;;5033312;28;20987;-65
2023/01/21 06:04:29;;;;;;;0.50;0.50;;;-0.40;99.90;;;;;;5033010;28;20228;-66
2023/01/21 06:06:56;;;;;;;0.60;0.60;;;-0.40;99.90;;;;;;5033072;28;20201;-66
2023/01/21 06:09:24;;;;;;;0.67;0.67;;;-0.50;99.90;;;;;;5034027;28;20208;-64
2023/01/21 06:11:51;;;;;;;0.50;0.50;;;-0.40;99.90;;;;;;5034511;28;20208;-66
2023/01/21 06:14:18;;;;;;;0.60;0.60;;;-0.40;99.90;;;;;;5032671;28;20215;-66
2023/01/21 06:16:44;;;;;;;0.83;0.83;;;-0.40;99.90;;;;;;5031778;28;20209;-66
2023/01/21 06:19:11;;;;;;;0.90;0.90;;;-0.40;99.90;;;;;;5031817;28;20204;-66
2023/01/21 06:21:38;;;;;;;0.80;0.80;;;-0.30;99.90;;;;;;5031465;28;20677;-67
2023/01/21 06:24:05;;;;;;;0.87;0.87;;;-0.30;99.90;;;;;;5031954;28;20229;-67
2023/01/21 06:26:35;;;;;;;0.80;0.80;;;-0.40;99.90;;;;;;5031020;28;20710;-66
2023/01/21 06:29:01;;;;;;;0.80;0.80;;;-0.40;99.90;;;;;;5031180;28;20204;-67
2023/01/21 06:31:28;;;;;;;0.57;0.57;;;-0.40;99.90;;;;;;5031637;28;20327;-66
2023/01/21 06:33:55;;;;;;;0.70;0.70;;;-0.40;99.90;;;;;;5032513;28;20304;-66
2023/01/21 06:36:22;;;;;;;0.73;0.73;;;-0.40;99.90;;;;;;5032585;28;20209;-64
2023/01/21 06:38:49;;;;;;;0.73;0.73;;;-0.40;99.90;;;;;;5032191;28;20211;-65
2023/01/21 06:41:15;;;;;;;0.80;0.80;;;-0.50;99.90;;;;;;5031889;28;20237;-67
2023/01/21 06:43:44;;;;;;;0.90;0.90;;;-0.50;99.90;;;;;;5032338;28;20230;-66
2023/01/21 06:46:11;;;;;;;0.88;0.88;;;-0.50;99.90;;;;;;5032453;28;20207;-65
2023/01/21 06:48:37;;;;;;;0.83;0.83;;;-0.60;99.90;;;;;;5039592;28;20205;-66
2023/01/21 06:51:05;;;;;;;0.80;0.80;;;-0.40;99.90;;;;;;5035590;28;20229;-66
2023/01/21 06:53:31;;;;;;;0.77;0.77;;;-0.60;99.90;;;;;;5032631;28;20197;-66
2023/01/21 06:55:58;;;;;;;0.80;0.80;;;-0.60;99.90;;;;;;5031532;28;20707;-64
2023/01/21 06:58:25;;;;;;;0.60;0.60;;;-0.60;99.90;;;;;;5031706;28;20202;-66
2023/01/21 07:00:55;;;;;;;0.67;0.67;;;-0.70;99.90;;;;;;5032503;28;20224;-66
2023/01/21 07:03:22;;;;;;;0.70;0.70;;;-0.60;99.90;;;;;;5039754;28;20208;-67
2023/01/21 07:05:49;;;;;;;0.70;0.70;;;-0.60;99.90;;;;;;5044001;28;20640;-66
2023/01/21 07:08:16;;;;;;;0.80;0.80;;;-0.60;99.90;;;;;;5044521;28;20666;-66
2023/01/21 07:10:43;;;;;;;0.97;0.97;;;-0.70;99.90;;;;;;5044395;28;20311;-65
2023/01/21 07:13:09;;;;;;;0.77;0.77;;;-0.70;99.90;;;;;;5040850;28;20238;-65
2023/01/21 07:15:36;;;;;;;0.67;0.67;;;-0.70;99.90;;;;;;5037237;28;20692;-69
2023/01/21 07:18:04;;;;;;;0.70;0.70;;;-0.80;99.90;;;;;;5032239;28;20209;-66
2023/01/21 07:20:31;;;;;;;0.80;0.80;;;-0.90;99.90;;;;;;5029559;28;20220;-67
2023/01/21 07:22:58;;;;;;;0.73;0.73;;;-1.00;99.90;;;;;;5031806;28;20205;-66
2023/01/21 07:25:25;;;;;;;0.73;0.73;;;-1.00;99.90;;;;;;5030160;28;20819;-65
2023/01/21 07:27:52;;;;;;;0.60;0.60;;;-1.10;99.90;;;;;;5030630;28;20201;-68
2023/01/21 07:30:20;;;;;;;0.73;0.73;;;-1.10;99.90;;;;;;5030437;28;20232;-66
2023/01/21 07:32:48;;;;;;;0.83;0.83;;;-1.10;99.90;;;;;;5029944;28;20200;-66
2023/01/21 07:35:16;;;;;;;0.87;0.87;;;-1.00;99.90;;;;;;5029761;28;20196;-65
2023/01/21 07:37:43;;;;;;;0.90;0.90;;;-1.00;99.90;;;;;;5025507;28;20197;-65
2023/01/21 07:40:11;;;;;;;0.90;0.90;;;-1.10;99.90;;;;;;5023652;28;20235;-65
2023/01/21 07:42:38;;;;;;;0.80;0.80;;;-1.10;99.90;;;;;;5025880;28;20207;-65
2023/01/21 07:45:06;;;;;;;0.80;0.80;;;-1.10;99.90;;;;;;5026619;28;20224;-65
2023/01/21 07:47:34;;;;;;;0.90;0.90;;;-1.00;99.90;;;;;;5030268;28;20287;-65
2023/01/21 07:50:03;;;;;;;0.80;0.80;;;-1.00;99.90;;;;;;5032624;28;20661;-66
2023/01/21 07:52:32;;;;;;;0.65;0.65;;;-0.90;99.90;;;;;;5031379;28;20296;-65
2023/01/21 07:55:00;;;;;;;0.80;0.80;;;-0.70;99.90;;;;;;5033783;28;20207;-67
2023/01/21 07:57:27;;;;;;;0.80;0.80;;;-0.70;99.90;;;;;;5030742;28;20204;-67
2023/01/21 07:59:54;;;;;;;0.70;0.70;;;-0.70;99.90;;;;;;5025768;28;20235;-65
2023/01/21 08:02:21;;;;;;;0.70;0.70;;;-0.70;99.90;;;;;;5031764;28;20223;-66
2023/01/21 08:04:48;;;;;;;0.80;0.80;;;-0.60;99.90;;;;;;5032163;28;20782;-63
2023/01/21 08:07:15;;;;;;;0.97;0.97;;;-0.70;99.90;;;;;;5033509;28;20204;-66
2023/01/21 08:09:43;;;;;;;1.03;1.03;;;-0.70;99.90;;;;;;5017614;28;20211;-66
2023/01/21 08:12:10;;;;;;;0.77;0.77;;;-0.70;99.90;;;;;;5026219;28;20208;-65
2023/01/21 08:14:37;;;;;;;1.07;1.07;;;-0.60;99.90;;;;;;5030818;28;20283;-65
2023/01/21 08:17:04;;;;;;;0.90;0.90;;;-0.60;99.90;;;;;;5031994;28;20228;-66
2023/01/21 08:19:31;;;;;;;1.30;1.30;;;-0.50;99.90;;;;;;5033178;28;20244;-66
2023/01/21 08:21:58;;;;;;;1.57;1.47;;;-0.40;99.90;;;;;;5028855;28;20209;-66
2023/01/21 08:24:25;;;;;;;1.60;1.50;;;-0.40;99.90;;;;;;5029783;28;20227;-67
2023/01/21 08:26:56;;;;;;;1.20;1.20;;;-0.30;99.90;;;;;;5033133;28;20207;-67
2023/01/21 08:29:23;;;;;;;1.40;1.30;;;-0.20;99.90;;;;;;5033411;28;20212;-65
2023/01/21 08:31:51;;;;;;;1.50;1.37;;;-0.20;99.90;;;;;;5034050;28;20329;-67
2023/01/21 08:34:18;;;;;;;1.20;1.20;;;-0.10;99.90;;;;;;5044538;28;20208;-64
2023/01/21 08:36:45;;;;;;;1.30;1.30;;;-0.10;99.90;;;;;;5045927;28;20299;-67
2023/01/21 08:39:14;;;;;;;1.20;1.20;;;0.00;99.90;;;;;;5030029;28;20622;-65
2023/01/21 08:41:41;;;;;;;1.40;1.30;;;0.20;99.90;;;;;;5030652;28;20311;-66
2023/01/21 08:44:09;;;;;;;1.20;1.20;;;0.30;99.90;;;;;;5028846;28;20240;-67
2023/01/21 08:46:36;;;;;;;1.67;1.57;;;0.50;99.90;;;;;;5029355;28;20201;-65
2023/01/21 08:49:03;;;;;;;2.00;1.90;;;0.70;99.90;;;;;;5026699;28;20663;-66
2023/01/21 08:51:30;;;;;;;2.20;2.10;;;0.80;99.90;;;;;;5025320;28;20315;-65
2023/01/21 08:53:57;;;;;;;1.90;1.80;;;0.80;99.90;;;;;;5025022;28;20890;-69
2023/01/21 08:56:24;;;;;;;1.90;1.80;;;1.00;99.90;;;;;;5023822;28;20204;-65
2023/01/21 08:58:55;;;;;;;1.80;1.70;;;1.20;99.90;;;;;;5024075;28;20205;-65
2023/01/21 09:01:24;;;;;;;1.87;1.40;;;1.20;99.90;;;;;;5021362;28;20237;-65
2023/01/21 09:03:54;;;;;;;1.50;1.40;;;1.40;99.90;;;;;;5018849;28;20226;-67
2023/01/21 09:06:21;;;;;;;1.40;1.30;;;1.40;99.90;;;;;;5024969;28;20212;-65
2023/01/21 09:08:48;;;;;;;1.40;1.40;;;1.50;99.90;;;;;;5027942;28;20197;-67
2023/01/21 09:11:15;;;;;;;1.70;1.60;;;1.60;99.90;;;;;;5027528;28;20230;-67
2023/01/21 09:13:43;;;;;;;1.20;1.20;;;1.70;99.90;;;;;;5020773;28;20600;-64
2023/01/21 09:16:12;;;;;;;1.37;1.33;;;1.70;99.90;;;;;;5017492;28;20277;-65
2023/01/21 09:18:41;;;;;;;1.40;1.40;;;1.40;99.90;;;;;;5028827;28;20224;-66
2023/01/21 09:21:08;;;;;;;1.90;1.80;;;1.50;99.90;;;;;;5031297;28;20220;-67
2023/01/21 09:23:36;;;;;;;2.00;1.90;;;1.60;99.90;;;;;;5031169;28;20295;-67
2023/01/21 09:26:05;;;;;;;2.73;2.53;;;1.60;99.90;;;;;;5029484;28;20242;-65
2023/01/21 09:28:33;;;;;;;2.63;2.53;;;1.60;99.90;;;;;;5027102;28;20207;-67
2023/01/21 09:31:01;;;;;;;3.00;2.80;;;1.60;99.90;;;;;;5016524;28;20235;-66
2023/01/21 09:33:30;;;;;;;3.33;3.13;;;1.50;99.90;;;;;;5020520;28;20251;-66
2023/01/21 09:36:00;;;;;;;3.00;2.80;;;1.30;99.90;;;;;;5027928;28;20292;-65
2023/01/21 09:38:28;;;;;;;3.33;3.13;;;1.30;99.90;;;;;;5020847;28;20779;-65
2023/01/21 09:40:56;;;;;;;3.50;3.30;;;1.30;99.90;;;;;;5025847;28;20274;-67
2023/01/21 09:43:27;;;;;;;3.10;3.00;;;1.30;99.90;;;;;;5028060;28;20566;-64
2023/01/21 09:45:57;;;;;;;3.63;3.33;;;1.30;99.90;;;;;;5025934;28;20221;-65
2023/01/21 09:48:31;;;;;;;3.30;3.10;;;1.50;99.90;;;;;;5021624;28;20205;-67
2023/01/21 09:51:02;;;;;;;3.57;3.37;;;1.60;99.90;;;;;;5019823;28;20320;-67
2023/01/21 09:53:49;;;;;;;3.33;3.13;;;1.80;99.90;;;;;;5021488;28;20300;-66
2023/01/21 09:56:24;;;;;;;3.37;3.17;;;1.90;99.90;;;;;;5019439;28;20204;-66
2023/01/21 09:59:00;;;;;;;3.17;2.97;;;1.90;99.90;;;;;;5021393;28;20700;-66
2023/01/21 10:01:32;;;;;;;3.50;3.30;;;1.90;99.90;;;;;;5018413;28;20223;-64
2023/01/21 10:04:04;;;;;;;3.33;3.13;;;1.70;99.90;;;;;;5021921;28;20201;-65
2023/01/21 10:06:39;;;;;;;3.27;3.07;;;1.80;99.90;;;;;;5024786;28;20220;-65
2023/01/21 10:09:32;;;;;;;3.47;3.27;;;1.90;99.90;;;;;;5033505;28;20292;-66
2023/01/21 10:12:18;;;;;;;3.70;3.50;;;1.70;99.90;;;;;;5029017;28;20203;-65
2023/01/21 10:15:04;;;;;;;3.77;3.57;;;1.70;99.90;;;;;;5008177;28;20207;-64
2023/01/21 10:17:46;;;;;;;3.23;3.03;;;1.90;99.90;;;;;;5048406;22;20314;-67
2023/01/21 10:20:17;;;;;;;3.33;3.13;;;2.10;99.90;;;;;;5078581;28;20273;-66
2023/01/21 10:22:52;;;;;;;3.57;3.37;;;2.00;99.90;;;;;;5066193;28;20233;-67
2023/01/21 10:25:25;;;;;;;3.27;3.07;;;2.20;99.90;;;;;;5065518;28;20225;-68
2023/01/21 10:27:53;;;;;;;3.23;3.03;;;2.30;99.90;;;;;;5048800;28;20197;-64
2023/01/21 10:30:24;;;;;;;3.07;2.90;;;2.40;99.90;;;;;;5036081;28;20220;-65
2023/01/21 10:32:54;;;;;;;3.50;3.30;;;2.40;99.90;;;;;;5039178;28;20204;-66
2023/01/21 10:35:31;;;;;;;3.20;3.00;;;2.20;99.90;;;;;;5045679;28;20196;-66
2023/01/21 10:38:07;;;;;;;3.23;3.03;;;2.30;99.90;;;;;;5041958;28;20573;-66
2023/01/21 10:40:45;;;;;;;3.17;2.97;;;2.30;99.90;;;;;;5039824;28;20235;-64
2023/01/21 10:43:23;;;;;;;3.03;2.83;;;2.20;99.90;;;;;;5039697;28;20702;-65
2023/01/21 10:45:58;;;;;;;3.37;3.17;;;2.30;99.90;;;;;;5038922;28;20310;-67
2023/01/21 10:48:36;;;;;;;3.00;2.80;;;2.40;99.90;;;;;;5040972;28;20199;-65
2023/01/21 10:51:10;;;;;;;3.23;3.03;;;2.40;99.90;;;;;;5039470;28;20246;-66
2023/01/21 10:53:44;;;;;;;3.23;3.03;;;2.30;99.90;;;;;;5038751;28;20213;-65
2023/01/21 10:56:22;;;;;;;3.23;3.03;;;2.00;99.90;;;;;;5040641;28;20207;-65
2023/01/21 10:58:51;;;;;;;2.83;2.73;;;2.10;99.90;;;;;;5049357;28;20191;-66
2023/01/21 11:01:22;;;;;;;3.37;3.17;;;2.30;99.90;;;;;;5066527;28;20724;-65
2023/01/21 11:03:52;;;;;;;3.33;3.13;;;2.30;99.90;;;;;;5068495;28;20199;-66
2023/01/21 11:06:21;;;;;;;3.13;2.93;;;2.30;99.90;;;;;;5069967;28;20219;-66
2023/01/21 11:08:54;;;;;;;3.53;3.27;;;2.40;99.90;;;;;;5074494;28;20230;-65
2023/01/21 11:11:26;;;;;;;3.20;3.00;;;2.40;99.90;;;;;;5069867;28;20219;-66
2023/01/21 11:13:54;;;;;;;3.13;2.93;;;2.20;99.90;;;;;;5070831;28;20207;-66
2023/01/21 11:16:45;;;;;;;3.53;3.33;;;2.10;99.90;;;;;;5070975;28;20290;-66
2023/01/21 11:19:15;;;;;;;3.13;2.93;;;2.00;99.90;;;;;;5071347;28;20249;-67
2023/01/21 11:21:56;;;;;;;3.10;2.97;;;2.10;99.90;;;;;;5069831;28;20376;-67
2023/01/21 11:24:26;;;;;;;3.33;3.13;;;2.20;99.90;;;;;;5047972;28;20231;-66
2023/01/21 11:26:54;;;;;;;2.87;2.73;;;2.30;99.90;;;;;;5052952;28;20251;-66
2023/01/21 11:29:22;;;;;;;2.83;2.63;;;2.40;99.90;;;;;;5050370;28;20200;-65
2023/01/21 11:31:54;;;;;;;2.90;2.70;;;2.30;99.90;;;;;;5048673;28;20215;-65
2023/01/21 11:34:22;;;;;;;2.97;2.77;;;2.20;99.90;;;;;;5046490;28;20196;-67
2023/01/21 11:36:58;;;;;;;2.95;2.75;;;2.30;99.90;;;;;;5048044;28;20283;-64
2023/01/21 11:39:28;;;;;;;3.10;2.90;;;2.30;99.90;;;;;;5047594;28;20203;-66
2023/01/21 11:41:56;;;;;;;2.50;2.40;;;2.40;99.90;;;;;;5049622;28;20196;-63
2023/01/21 11:44:24;;;;;;;3.10;2.90;;;2.20;99.90;;;;;;5046564;28;20229;-65
2023/01/21 11:46:51;;;;;;;2.60;2.50;;;2.10;99.90;;;;;;5047971;28;20724;-66
2023/01/21 11:49:30;;;;;;;2.60;2.50;;;2.00;99.90;;;;;;5048867;28;20468;-64
2023/01/21 11:52:15;;;;;;;2.70;2.60;;;2.00;99.90;;;;;;5031164;28;20208;-65
2023/01/21 11:54:44;;;;;;;2.90;2.70;;;1.90;99.90;;;;;;5045254;28;20196;-65
2023/01/21 11:57:32;;;;;;;2.47;2.37;;;1.80;99.90;;;;;;5054407;28;20567;-65
2023/01/21 12:00:07;;;;;;;2.90;2.70;;;2.10;99.90;;;;;;5044718;28;20220;-66
2023/01/21 12:02:39;;;;;;;2.80;2.60;;;2.20;99.90;;;;;;5052888;28;20196;-65
2023/01/21 12:05:13;;;;;;;2.67;2.53;;;2.40;99.90;;;;;;5075641;28;20207;-63
2023/01/21 12:07:42;;;;;;;2.67;2.50;;;2.60;99.90;;;;;;5054901;28;20195;-65
2023/01/21 12:10:23;;;;;;;2.63;2.47;;;2.60;99.90;;;;;;5055693;28;20216;-66
2023/01/21 12:13:07;;;;;;;2.90;2.70;;;2.80;99.90;;;;;;5054405;28;20199;-66
2023/01/21 12:15:47;;;;;;;2.90;2.73;;;2.80;99.90;;;;;;5051286;28;20199;-66
2023/01/21 12:18:24;;;;;;;3.13;2.93;;;3.10;99.90;;;;;;5049744;28;20208;-65
2023/01/21 12:21:00;;;;;;;3.07;2.87;;;3.00;99.90;;;;;;5049585;28;20617;-65
2023/01/21 12:23:52;;;;;;;3.00;2.80;;;2.90;99.90;;;;;;5049403;28;20222;-66
2023/01/21 12:26:34;;;;;;;2.90;2.70;;;2.90;99.90;;;;;;5050216;28;20223;-66
2023/01/21 12:29:32;;;;;;;2.80;2.60;;;2.80;99.90;;;;;;5053910;28;20217;-64
2023/01/21 12:32:04;;;;;;;2.80;2.60;;;2.90;99.90;;;;;;5040497;28;20203;-66
2023/01/21 12:34:36;;;;;;;2.80;2.60;;;3.00;99.90;;;;;;5053154;28;20241;-65
2023/01/21 12:37:11;;;;;;;3.10;2.80;;;3.10;99.90;;;;;;5052762;28;20196;-66
2023/01/21 12:39:38;;;;;;;2.47;2.37;;;3.00;99.90;;;;;;5056567;28;20196;-64
2023/01/21 12:42:11;;;;;;;2.40;2.30;;;3.00;99.90;;;;;;5053532;28;20749;-64
2023/01/21 12:44:43;;;;;;;2.60;2.50;;;2.80;99.90;;;;;;5053065;28;20211;-65
2023/01/21 12:47:20;;;;;;;2.43;2.33;;;2.80;99.90;;;;;;5058923;28;20780;-64
2023/01/21 12:50:03;;;;;;;2.60;2.50;;;2.60;99.90;;;;;;5051308;28;20757;-65
2023/01/21 12:52:37;;;;;;;2.63;2.53;;;2.60;99.90;;;;;;5046358;28;20206;-65
2023/01/21 12:55:11;;;;;;;2.60;2.50;;;2.40;99.90;;;;;;5054238;28;20275;-66
2023/01/21 12:57:44;;;;;;;2.80;2.70;;;2.50;99.90;;;;;;5052823;28;20208;-64
2023/01/21 13:00:20;;;;;;;2.20;2.10;;;2.40;99.90;;;;;;5052268;28;20220;-65
2023/01/21 13:02:56;;;;;;;2.90;2.80;;;2.40;99.90;;;;;;5053025;28;20212;-66
2023/01/21 13:05:30;;;;;;;2.67;2.57;;;2.40;99.90;;;;;;5052144;28;20211;-67
2023/01/21 13:08:04;;;;;;;3.07;2.87;;;2.30;99.90;;;;;;5058412;28;20509;-67
2023/01/21 13:10:35;;;;;;;2.60;2.50;;;2.20;99.90;;;;;;5052247;28;20229;-67
2023/01/21 13:13:14;;;;;;;2.90;2.70;;;2.00;99.90;;;;;;5061778;28;20210;-66
2023/01/21 13:15:45;;;;;;;3.07;2.87;;;2.00;99.90;;;;;;5062334;28;20190;-65